createdAt,value
2023-04-15T00:01:51.742Z,99.90
2023-04-15T00:04:18.596Z,99.90
2023-04-15T00:06:46.093Z,99.90
2023-04-15T00:09:12.768Z,99.90
2023-04-15T00:11:39.467Z,99.90
2023-04-15T00:14:07.600Z,99.90
2023-04-15T00:16:34.352Z,99.90
2023-04-15T00:19:01.270Z,99.90
2023-04-15T00:21:29.228Z,99.90
2023-04-15T00:23:55.975Z,99.90
2023-04-15T00:26:22.662Z,99.90
2023-04-15T00:28:49.470Z,99.90
2023-04-15T00:31:16.562Z,99.90
2023-04-15T00:33:43.296Z,99.90
2023-04-15T00:36:10.094Z,99.90
2023-04-15T00:38:36.800Z,99.90
2023-04-15T00:41:03.862Z,99.90
2023-04-15T00:43:30.582Z,99.90
2023-04-15T00:45:58.005Z,99.90
2023-04-15T00:48:24.731Z,99.90
2023-04-15T00:50:51.500Z,99.90
2023-04-15T00:53:18.182Z,99.90
2023-04-15T00:55:44.980Z,99.90
2023-04-15T00:58:11.722Z,99.90
2023-04-15T01:00:38.399Z,99.90
2023-04-15T01:03:05.221Z,99.90
2023-04-15T01:05:32.066Z,99.90
2023-04-15T01:07:58.820Z,99.90
2023-04-15T01:10:25.534Z,99.90
2023-04-15T01:12:52.642Z,99.90
2023-04-15T01:15:19.354Z,99.90
2023-04-15T01:17:46.508Z,99.90
2023-04-15T01:20:13.354Z,99.90
2023-04-15T01:22:40.502Z,99.90
2023-04-15T01:25:08.460Z,99.90
2023-04-15T01:27:35.795Z,99.90
2023-04-15T01:30:05.431Z,99.90
2023-04-15T01:32:32.178Z,99.90
2023-04-15T01:34:58.911Z,99.90
2023-04-15T01:37:26.175Z,99.90
2023-04-15T01:39:52.948Z,99.90
2023-04-15T01:42:19.606Z,99.90
2023-04-15T01:44:46.448Z,99.90
2023-04-15T01:47:13.078Z,99.90
2023-04-15T01:49:39.985Z,99.90
2023-04-15T01:52:06.601Z,99.90
2023-04-15T01:54:33.305Z,99.90
2023-04-15T01:57:00.016Z,99.90
2023-04-15T01:59:27.461Z,99.90
2023-04-15T02:01:54.231Z,99.90
2023-04-15T02:04:23.370Z,99.90
2023-04-15T02:06:50.032Z,99.90
2023-04-15T02:09:17.200Z,99.90
2023-04-15T02:11:43.903Z,99.90
2023-04-15T02:14:10.579Z,99.90
2023-04-15T02:16:37.460Z,99.90
2023-04-15T02:19:04.420Z,99.90
2023-04-15T02:21:31.159Z,99.90
2023-04-15T02:23:57.896Z,99.90
2023-04-15T02:26:25.580Z,99.90
2023-04-15T02:28:52.331Z,99.90
2023-04-15T02:31:19.002Z,99.90
2023-04-15T02:33:45.774Z,99.90
2023-04-15T02:36:12.615Z,99.90
2023-04-15T02:38:41.407Z,99.90
2023-04-15T02:41:08.676Z,99.90
2023-04-15T02:43:35.369Z,99.90
2023-04-15T02:46:02.057Z,99.90
2023-04-15T02:48:28.808Z,99.90
2023-04-15T02:50:55.524Z,99.90
2023-04-15T02:53:22.263Z,99.90
2023-04-15T02:55:49.002Z,99.90
2023-04-15T02:58:15.967Z,99.90
2023-04-15T03:00:42.651Z,99.90
2023-04-15T03:03:11.042Z,99.90
2023-04-15T03:05:39.408Z,99.90
2023-04-15T03:08:06.761Z,99.90
2023-04-15T03:10:33.443Z,99.90
2023-04-15T03:13:01.305Z,99.90
2023-04-15T03:15:28.048Z,99.90
2023-04-15T03:17:54.852Z,99.90
2023-04-15T03:20:21.666Z,99.90
2023-04-15T03:22:48.347Z,99.90
2023-04-15T03:25:15.040Z,99.90
2023-04-15T03:27:41.766Z,99.90
2023-04-15T03:30:09.061Z,99.90
2023-04-15T03:32:35.856Z,99.90
2023-04-15T03:35:02.621Z,99.90
2023-04-15T03:37:32.461Z,99.90
2023-04-15T03:39:59.160Z,99.90
2023-04-15T03:42:25.885Z,99.90
2023-04-15T03:44:52.690Z,99.90
2023-04-15T03:47:19.492Z,99.90
2023-04-15T03:49:46.373Z,99.90
2023-04-15T03:52:13.446Z,99.90
2023-04-15T03:54:40.178Z,99.90
2023-04-15T03:57:07.061Z,99.90
2023-04-15T03:59:33.795Z,99.90
2023-04-15T04:02:00.663Z,99.90
2023-04-15T04:04:27.635Z,99.90
2023-04-15T04:06:54.442Z,99.90
2023-04-15T04:09:21.129Z,99.90
2023-04-15T04:11:47.878Z,99.90
2023-04-15T04:14:14.678Z,99.90
2023-04-15T04:16:41.637Z,99.90
2023-04-15T04:19:08.584Z,99.90
2023-04-15T04:21:35.372Z,99.90
2023-04-15T04:24:02.261Z,99.90
2023-04-15T04:26:28.953Z,99.90
2023-04-15T04:28:55.602Z,99.90
2023-04-15T04:31:22.333Z,99.90
2023-04-15T04:33:49.063Z,99.90
2023-04-15T04:36:15.814Z,99.90
2023-04-15T04:38:42.535Z,99.90
2023-04-15T04:41:09.147Z,99.90
2023-04-15T04:43:36.085Z,99.90
2023-04-15T04:46:02.877Z,99.90
2023-04-15T04:48:29.674Z,99.90
2023-04-15T04:50:56.497Z,99.90
2023-04-15T04:53:23.323Z,99.90
2023-04-15T04:55:50.164Z,99.90
2023-04-15T04:58:18.054Z,99.90
2023-04-15T05:00:44.707Z,99.90
2023-04-15T05:03:11.694Z,99.90
2023-04-15T05:05:41.130Z,99.90
2023-04-15T05:08:07.838Z,99.90
2023-04-15T05:10:34.630Z,99.90
2023-04-15T05:13:01.327Z,99.90
2023-04-15T05:15:28.231Z,99.90
2023-04-15T05:17:55.403Z,99.90
2023-04-15T05:20:22.150Z,99.90
2023-04-15T05:22:48.880Z,99.90
2023-04-15T05:25:15.617Z,99.90
2023-04-15T05:27:42.380Z,99.90
2023-04-15T05:30:09.096Z,99.90
2023-04-15T05:32:35.843Z,99.90
2023-04-15T05:35:03.169Z,99.90
2023-04-15T05:37:29.887Z,99.90
2023-04-15T05:39:57.074Z,99.90
2023-04-15T05:42:23.746Z,99.90
2023-04-15T05:44:50.587Z,99.90
2023-04-15T05:47:17.464Z,99.90
2023-04-15T05:49:44.129Z,99.90
2023-04-15T05:52:11.224Z,99.90
2023-04-15T05:54:38.738Z,99.90
2023-04-15T05:57:05.803Z,99.90
2023-04-15T05:59:32.810Z,99.90
2023-04-15T06:01:59.558Z,99.90
2023-04-15T06:04:26.508Z,99.90
2023-04-15T06:06:53.374Z,99.90
2023-04-15T06:09:20.338Z,99.90
2023-04-15T06:11:47.664Z,99.90
2023-04-15T06:14:14.528Z,99.90
2023-04-15T06:16:41.455Z,99.90
2023-04-15T06:19:08.202Z,99.90
2023-04-15T06:21:34.999Z,99.90
2023-04-15T06:24:01.980Z,99.90
2023-04-15T06:26:28.813Z,99.90
2023-04-15T06:28:55.857Z,99.90
2023-04-15T06:31:22.733Z,99.90
2023-04-15T06:33:49.832Z,99.90
2023-04-15T06:36:16.599Z,99.90
2023-04-15T06:38:43.339Z,99.90
2023-04-15T06:41:10.064Z,99.90
2023-04-15T06:43:36.788Z,99.90
2023-04-15T06:46:03.710Z,99.90
2023-04-15T06:48:30.638Z,99.90
2023-04-15T06:50:58.493Z,99.90
2023-04-15T06:53:25.292Z,99.90
2023-04-15T06:55:52.030Z,99.90
2023-04-15T06:58:18.817Z,99.90
2023-04-15T07:00:45.603Z,99.90
2023-04-15T07:03:13.027Z,99.90
2023-04-15T07:05:39.870Z,99.90
2023-04-15T07:08:06.950Z,99.90
2023-04-15T07:10:33.719Z,99.90
2023-04-15T07:13:01.169Z,99.90
2023-04-15T07:15:28.061Z,99.90
2023-04-15T07:17:54.860Z,99.90
2023-04-15T07:20:21.613Z,99.90
2023-04-15T07:22:48.370Z,99.90
2023-04-15T07:25:15.076Z,99.90
2023-04-15T07:27:41.880Z,99.90
2023-04-15T07:30:09.249Z,99.90
2023-04-15T07:32:39.228Z,99.90
2023-04-15T07:35:05.946Z,99.90
2023-04-15T07:37:32.788Z,99.90
2023-04-15T07:39:59.548Z,99.90
2023-04-15T07:42:26.349Z,99.90
2023-04-15T07:44:53.100Z,99.90
2023-04-15T07:47:19.884Z,99.90
2023-04-15T07:49:46.692Z,99.90
2023-04-15T07:52:13.394Z,99.90
2023-04-15T07:54:40.050Z,99.90
2023-04-15T07:57:06.793Z,99.90
2023-04-15T07:59:33.786Z,99.90
2023-04-15T08:02:00.549Z,99.90
2023-04-15T08:04:27.675Z,99.90
2023-04-15T08:06:54.888Z,99.90
2023-04-15T08:09:21.771Z,99.90
2023-04-15T08:11:48.661Z,99.90
2023-04-15T08:14:15.816Z,99.90
2023-04-15T08:16:42.594Z,99.90
2023-04-15T08:19:09.491Z,99.90
2023-04-15T08:21:36.694Z,99.90
2023-04-15T08:24:03.489Z,99.90
2023-04-15T08:26:30.156Z,99.90
2023-04-15T08:28:57.566Z,99.90
2023-04-15T08:31:24.428Z,99.90
2023-04-15T08:33:52.560Z,99.90
2023-04-15T08:36:19.320Z,99.90
2023-04-15T08:38:46.311Z,99.90
2023-04-15T08:41:14.236Z,99.90
2023-04-15T08:43:40.977Z,99.90
2023-04-15T08:46:07.747Z,99.90
2023-04-15T08:48:36.024Z,99.90
2023-04-15T08:51:03.420Z,99.90
2023-04-15T08:53:30.763Z,99.90
2023-04-15T08:55:57.514Z,99.90
2023-04-15T08:58:24.806Z,99.90
2023-04-15T09:00:51.776Z,99.90
2023-04-15T09:03:19.380Z,99.90
2023-04-15T09:05:46.200Z,99.90
2023-04-15T09:08:13.305Z,99.90
2023-04-15T09:10:40.005Z,99.90
2023-04-15T09:13:07.031Z,99.90
2023-04-15T09:15:33.842Z,99.90
2023-04-15T09:18:00.649Z,99.90
2023-04-15T09:20:27.469Z,99.90
2023-04-15T09:22:54.180Z,99.90
2023-04-15T09:25:20.984Z,99.90
2023-04-15T09:27:47.822Z,99.90
2023-04-15T09:30:14.575Z,99.90
2023-04-15T09:32:41.718Z,99.90
2023-04-15T09:35:08.396Z,99.90
2023-04-15T09:37:35.173Z,99.90
2023-04-15T09:40:01.891Z,99.90
2023-04-15T09:42:28.860Z,99.90
2023-04-15T09:44:55.604Z,99.90
2023-04-15T09:47:22.359Z,99.90
2023-04-15T09:49:49.072Z,99.90
2023-04-15T09:52:16.119Z,99.90
2023-04-15T09:54:42.818Z,99.90
2023-04-15T09:57:10.444Z,99.90
2023-04-15T09:59:37.415Z,99.90
2023-04-15T10:02:04.080Z,99.90
2023-04-15T10:04:31.295Z,99.90
2023-04-15T10:06:58.105Z,99.90
2023-04-15T10:09:24.868Z,99.90
2023-04-15T10:11:51.640Z,99.90
2023-04-15T10:14:18.363Z,99.90
2023-04-15T10:16:46.213Z,99.90
2023-04-15T10:19:12.969Z,99.90
2023-04-15T10:21:39.652Z,99.90
2023-04-15T10:24:06.443Z,99.90
2023-04-15T10:26:33.203Z,99.90
2023-04-15T10:29:00.238Z,99.90
2023-04-15T10:31:27.075Z,99.90
2023-04-15T10:33:53.802Z,99.90
2023-04-15T10:36:20.696Z,99.90
2023-04-15T10:38:47.539Z,99.90
2023-04-15T10:41:14.804Z,99.90
2023-04-15T10:43:42.091Z,99.90
2023-04-15T10:46:08.860Z,99.90
2023-04-15T10:48:35.574Z,99.90
2023-04-15T10:51:05.448Z,99.90
2023-04-15T10:53:32.192Z,99.90
2023-04-15T10:55:58.911Z,99.90
2023-04-15T10:58:25.974Z,99.90
2023-04-15T11:00:53.209Z,99.90
2023-04-15T11:03:20.047Z,99.90
2023-04-15T11:05:46.925Z,99.90
2023-04-15T11:08:13.619Z,99.90
2023-04-15T11:10:40.483Z,99.90
2023-04-15T11:13:07.156Z,99.90
2023-04-15T11:15:33.859Z,99.90
2023-04-15T11:18:00.612Z,99.90
2023-04-15T11:20:27.631Z,99.90
2023-04-15T11:23:13.967Z,99.90
2023-04-15T11:25:41.922Z,99.90
2023-04-15T11:28:08.826Z,99.90
2023-04-15T11:30:35.875Z,99.90
2023-04-15T11:33:02.723Z,99.90
2023-04-15T11:35:29.500Z,99.90
2023-04-15T11:37:56.398Z,99.90
2023-04-15T11:40:23.436Z,99.90
2023-04-15T11:42:50.343Z,99.90
2023-04-15T11:45:17.102Z,99.90
2023-04-15T11:47:43.912Z,99.90
2023-04-15T11:50:10.633Z,99.90
2023-04-15T11:52:37.399Z,99.90
2023-04-15T11:55:04.475Z,99.90
2023-04-15T11:57:31.483Z,99.90
2023-04-15T11:59:58.211Z,99.90
2023-04-15T12:02:25.067Z,99.90
2023-04-15T12:04:51.962Z,99.90
2023-04-15T12:07:18.706Z,99.90
2023-04-15T12:09:45.630Z,99.90
2023-04-15T12:12:12.862Z,99.90
2023-04-15T12:14:39.635Z,99.50
2023-04-15T12:17:06.342Z,99.90
2023-04-15T12:19:33.038Z,99.90
2023-04-15T12:22:00.781Z,99.90
2023-04-15T12:24:27.862Z,99.70
2023-04-15T12:26:54.945Z,99.90
2023-04-15T12:29:22.280Z,98.90
2023-04-15T12:31:49.989Z,99.90
2023-04-15T12:34:17.044Z,99.90
2023-04-15T12:36:43.772Z,98.70
2023-04-15T12:39:10.513Z,97.20
2023-04-15T12:41:37.420Z,97.60
2023-04-15T12:44:04.474Z,96.70
2023-04-15T12:46:31.487Z,95.60
2023-04-15T12:48:58.347Z,94.40
2023-04-15T12:51:25.090Z,97.30
2023-04-15T12:53:51.836Z,92.70
2023-04-15T12:56:18.674Z,94.50
2023-04-15T12:58:45.414Z,92.10
2023-04-15T13:01:12.332Z,98.50
2023-04-15T13:03:39.437Z,95.90
2023-04-15T13:06:06.309Z,88.50
2023-04-15T13:08:32.995Z,92.80
2023-04-15T13:10:59.978Z,91.10
2023-04-15T13:13:27.310Z,91.50
2023-04-15T13:15:54.180Z,92.70
2023-04-15T13:18:21.146Z,93.30
2023-04-15T13:20:47.916Z,92.30
2023-04-15T13:23:14.735Z,92.90
2023-04-15T13:25:41.497Z,93.40
2023-04-15T13:28:08.156Z,92.80
2023-04-15T13:30:34.995Z,94.70
2023-04-15T13:33:01.761Z,93.80
2023-04-15T13:35:28.530Z,91.50
2023-04-15T13:37:55.999Z,91.70
2023-04-15T13:40:22.867Z,82.00
2023-04-15T13:42:49.671Z,83.00
2023-04-15T13:45:16.424Z,90.40
2023-04-15T13:47:43.238Z,87.90
2023-04-15T13:50:10.035Z,78.20
2023-04-15T13:52:36.818Z,80.80
2023-04-15T13:55:18.395Z,80.30
2023-04-15T13:57:47.430Z,80.30
2023-04-15T14:00:14.561Z,78.40
2023-04-15T14:02:42.605Z,83.60
2023-04-15T14:05:09.520Z,80.30
2023-04-15T14:07:36.669Z,81.10
2023-04-15T14:10:03.441Z,81.10
2023-04-15T14:12:30.168Z,86.80
2023-04-15T14:14:56.853Z,91.40
2023-04-15T14:17:23.571Z,89.70
2023-04-15T14:19:50.314Z,82.50
2023-04-15T14:22:18.697Z,84.50
2023-04-15T14:24:45.504Z,76.90
2023-04-15T14:27:12.668Z,89.00
2023-04-15T14:29:39.442Z,77.40
2023-04-15T14:32:11.873Z,77.80
2023-04-15T14:34:39.457Z,71.00
2023-04-15T14:37:06.258Z,85.90
2023-04-15T14:39:32.978Z,71.20
2023-04-15T14:41:59.682Z,72.30
2023-04-15T14:44:26.345Z,66.00
2023-04-15T14:46:53.201Z,73.30
2023-04-15T14:49:19.909Z,66.10
2023-04-15T14:51:46.632Z,70.50
2023-04-15T14:54:13.351Z,84.00
2023-04-15T14:56:40.047Z,67.20
2023-04-15T14:59:06.874Z,62.90
2023-04-15T15:01:33.690Z,66.10
2023-04-15T15:04:00.550Z,67.80
2023-04-15T15:06:27.974Z,74.40
2023-04-15T15:08:54.651Z,66.20
2023-04-15T15:11:21.768Z,64.10
2023-04-15T15:13:48.561Z,63.70
2023-04-15T15:16:15.428Z,70.00
2023-04-15T15:18:42.259Z,68.60
2023-04-15T15:21:08.999Z,68.60
2023-04-15T15:23:35.796Z,65.90
2023-04-15T15:26:02.565Z,68.40
2023-04-15T15:28:29.295Z,68.20
2023-04-15T15:30:56.503Z,70.20
2023-04-15T15:33:23.650Z,72.00
2023-04-15T15:35:50.490Z,74.80
2023-04-15T15:38:17.197Z,72.50
2023-04-15T15:40:43.978Z,72.00
2023-04-15T15:43:10.819Z,70.20
2023-04-15T15:45:37.423Z,68.80
2023-04-15T15:48:04.229Z,70.20
2023-04-15T15:50:30.975Z,69.20
2023-04-15T15:52:58.929Z,68.00
2023-04-15T15:55:27.182Z,65.10
2023-04-15T15:57:54.342Z,62.60
2023-04-15T16:00:21.719Z,63.40
2023-04-15T16:03:06.153Z,62.20
2023-04-15T16:05:34.151Z,65.90
2023-04-15T16:08:00.994Z,69.70
2023-04-15T16:10:27.676Z,74.60
2023-04-15T16:12:54.445Z,76.60
2023-04-15T16:15:21.137Z,75.20
2023-04-15T16:17:47.895Z,74.80
2023-04-15T16:20:14.546Z,73.20
2023-04-15T16:22:41.295Z,74.70
2023-04-15T16:25:07.987Z,76.50
2023-04-15T16:27:36.461Z,77.70
2023-04-15T16:30:10.151Z,81.60
2023-04-15T16:32:37.108Z,84.20
2023-04-15T16:35:03.903Z,86.70
2023-04-15T16:37:32.012Z,87.80
2023-04-15T16:39:58.803Z,90.20
2023-04-15T16:42:25.612Z,91.10
2023-04-15T16:44:52.344Z,89.80
2023-04-15T16:47:19.065Z,90.00
2023-04-15T16:49:45.763Z,91.90
2023-04-15T16:52:14.543Z,93.00
2023-04-15T16:54:41.741Z,91.20
2023-04-15T16:57:08.872Z,94.20
2023-04-15T16:59:35.910Z,94.80
2023-04-15T17:02:02.870Z,96.90
2023-04-15T17:04:29.978Z,99.90
2023-04-15T17:06:56.985Z,99.90
2023-04-15T17:12:07.706Z,99.90
2023-04-15T17:14:35.416Z,99.90
2023-04-15T17:17:02.516Z,99.90
2023-04-15T17:19:29.440Z,99.90
2023-04-15T17:21:58.188Z,99.90
2023-04-15T17:24:26.217Z,99.90
2023-04-15T17:26:53.534Z,99.90
2023-04-15T17:29:20.237Z,99.90
2023-04-15T17:31:46.971Z,99.90
2023-04-15T17:34:15.716Z,99.90
2023-04-15T17:36:42.809Z,99.90
2023-04-15T17:39:09.597Z,99.90
2023-04-15T17:41:36.504Z,99.90
2023-04-15T17:44:03.505Z,99.90
2023-04-15T17:46:30.894Z,99.90
2023-04-15T17:48:57.614Z,99.90
2023-04-15T17:51:24.347Z,99.90
2023-04-15T17:53:50.994Z,99.90
2023-04-15T17:56:17.769Z,99.90
2023-04-15T17:58:50.951Z,99.90
2023-04-15T18:01:17.936Z,99.90
2023-04-15T18:03:44.771Z,99.90
2023-04-15T18:06:11.601Z,99.90
2023-04-15T18:08:38.416Z,99.90
2023-04-15T18:11:05.127Z,99.90
2023-04-15T18:13:31.859Z,99.90
2023-04-15T18:15:58.587Z,99.90
2023-04-15T18:18:25.392Z,99.90
2023-04-15T18:20:52.251Z,99.90
2023-04-15T18:23:18.932Z,99.90
2023-04-15T18:25:45.695Z,99.90
2023-04-15T18:28:12.348Z,99.90
2023-04-15T18:30:39.182Z,99.90
2023-04-15T18:33:06.409Z,99.90
2023-04-15T18:35:35.205Z,99.90
2023-04-15T18:38:01.891Z,99.90
2023-04-15T18:40:28.651Z,99.90
2023-04-15T18:42:55.387Z,99.90
2023-04-15T18:45:22.082Z,99.90
2023-04-15T18:47:48.879Z,99.90
2023-04-15T18:50:15.620Z,99.90
2023-04-15T18:52:42.369Z,99.90
2023-04-15T18:55:09.038Z,99.90
2023-04-15T18:57:37.023Z,99.90
2023-04-15T19:00:04.705Z,99.90
2023-04-15T19:02:31.821Z,99.90
2023-04-15T19:04:58.806Z,99.90
2023-04-15T19:07:25.722Z,99.90
2023-04-15T19:09:52.388Z,99.90
2023-04-15T19:12:19.088Z,99.90
2023-04-15T19:14:45.818Z,99.90
2023-04-15T19:17:12.446Z,99.90
2023-04-15T19:19:39.230Z,99.90
2023-04-15T19:22:06.250Z,99.90
2023-04-15T19:24:33.329Z,99.90
2023-04-15T19:27:00.108Z,99.90
2023-04-15T19:29:28.631Z,99.90
2023-04-15T19:31:55.422Z,99.90
2023-04-15T19:34:22.097Z,99.90
2023-04-15T19:36:48.784Z,99.90
2023-04-15T19:39:15.683Z,99.90
2023-04-15T19:41:44.232Z,99.90
2023-04-15T19:44:13.615Z,99.90
2023-04-15T19:46:40.728Z,99.90
2023-04-15T19:49:07.577Z,99.90
2023-04-15T19:51:34.370Z,99.90
2023-04-15T19:54:00.998Z,99.90
2023-04-15T19:56:27.733Z,99.90
2023-04-15T19:58:54.479Z,99.90
2023-04-15T20:01:21.549Z,99.90
2023-04-15T20:03:48.445Z,99.90
2023-04-15T20:06:15.269Z,99.90
2023-04-15T20:08:42.050Z,99.90
2023-04-15T20:11:08.673Z,99.90
2023-04-15T20:13:35.483Z,99.90
2023-04-15T20:16:02.264Z,99.90
2023-04-15T20:18:28.854Z,99.90
2023-04-15T20:20:55.441Z,99.90
2023-04-15T20:23:22.025Z,99.90
2023-04-15T20:25:48.650Z,99.90
2023-04-15T20:28:17.976Z,99.90
2023-04-15T20:30:44.768Z,99.90
2023-04-15T20:33:11.685Z,99.90
2023-04-15T20:35:39.030Z,99.90
2023-04-15T20:38:05.787Z,99.90
2023-04-15T20:40:33.746Z,99.90
2023-04-15T20:43:00.635Z,99.90
2023-04-15T20:45:27.212Z,99.90
2023-04-15T20:47:55.412Z,99.90
2023-04-15T20:50:22.199Z,99.90
2023-04-15T20:52:48.836Z,99.90
2023-04-15T20:55:15.500Z,99.90
2023-04-15T20:57:42.105Z,99.90
2023-04-15T21:00:10.894Z,99.90
2023-04-15T21:02:37.822Z,99.90
2023-04-15T21:05:04.691Z,99.90
2023-04-15T21:07:31.353Z,99.90
2023-04-15T21:09:58.013Z,99.90
2023-04-15T21:12:24.609Z,99.90
2023-04-15T21:14:51.339Z,99.90
2023-04-15T21:17:18.192Z,99.90
2023-04-15T21:19:44.945Z,99.90
2023-04-15T21:22:14.473Z,99.90
2023-04-15T21:24:41.243Z,99.90
2023-04-15T21:27:08.152Z,99.90
2023-04-15T21:29:34.867Z,99.90
2023-04-15T21:32:01.614Z,99.90
2023-04-15T21:34:28.295Z,99.90
2023-04-15T21:36:55.049Z,99.90
2023-04-15T21:39:21.906Z,99.90
2023-04-15T21:41:48.770Z,99.90
2023-04-15T21:44:15.553Z,99.90
2023-04-15T21:46:42.286Z,99.90
2023-04-15T21:49:12.859Z,99.90
2023-04-15T21:51:39.510Z,99.90
2023-04-15T21:54:06.272Z,99.90
2023-04-15T21:56:33.012Z,99.90
2023-04-15T21:58:59.683Z,99.90
2023-04-15T22:01:26.682Z,99.90
2023-04-15T22:03:53.751Z,99.90
2023-04-15T22:06:21.155Z,99.90
2023-04-15T22:08:56.292Z,99.90
2023-04-15T22:11:28.158Z,99.90
2023-04-15T22:13:55.730Z,99.90
2023-04-15T22:16:22.448Z,99.90
2023-04-15T22:18:49.579Z,99.90
2023-04-15T22:21:16.456Z,99.90
2023-04-15T22:23:43.124Z,99.90
2023-04-15T22:26:09.947Z,99.90
2023-04-15T22:28:36.754Z,99.90
2023-04-15T22:31:03.494Z,99.90
2023-04-15T22:33:30.414Z,99.90
2023-04-15T22:35:58.203Z,99.90
2023-04-15T22:38:24.854Z,99.90
2023-04-15T22:40:54.075Z,99.90
2023-04-15T22:43:20.810Z,99.90
2023-04-15T22:45:47.485Z,99.90
2023-04-15T22:48:14.201Z,99.90
2023-04-15T22:50:41.267Z,99.90
2023-04-15T22:53:08.058Z,99.90
2023-04-15T22:55:34.784Z,99.90
2023-04-15T22:58:01.428Z,99.90
2023-04-15T23:00:28.070Z,99.90
2023-04-15T23:02:54.896Z,99.90
2023-04-15T23:05:21.688Z,99.90
2023-04-15T23:07:48.519Z,99.90
2023-04-15T23:10:15.247Z,99.90
2023-04-15T23:12:41.986Z,99.90
2023-04-15T23:15:08.759Z,99.90
2023-04-15T23:17:35.486Z,99.90
2023-04-15T23:20:02.191Z,99.90
2023-04-15T23:22:28.847Z,99.90
2023-04-15T23:24:55.578Z,99.90
2023-04-15T23:27:22.921Z,99.90
2023-04-15T23:29:49.570Z,99.90
2023-04-15T23:32:16.295Z,99.90
2023-04-15T23:34:43.068Z,99.90
2023-04-15T23:37:09.701Z,99.90
2023-04-15T23:39:36.426Z,99.90
2023-04-15T23:42:03.128Z,99.90
2023-04-15T23:44:29.801Z,99.90
2023-04-15T23:46:56.691Z,99.90
2023-04-15T23:49:23.411Z,99.90
2023-04-15T23:51:50.084Z,99.90
2023-04-15T23:54:16.756Z,99.90
2023-04-15T23:56:43.499Z,99.90
2023-04-15T23:59:10.434Z,99.90
